sensor_id;sensor_type;location;lat;lon;timestamp;pressure;altitude;pressure_sealevel;temperature;humidity
70930;BME280;58588;48.102;19.682;2023-02-11T00:02:30;101419.56;;;-6.05;100.00
70930;BME280;58588;48.102;19.682;2023-02-11T00:05:32;101424.81;;;-6.05;100.00
70930;BME280;58588;48.102;19.682;2023-02-11T00:08:36;101416.81;;;-6.01;100.00
70930;BME280;58588;48.102;19.682;2023-02-11T00:11:38;101408.28;;;-6.10;100.00
70930;BME280;58588;48.102;19.682;2023-02-11T00:14:40;101414.44;;;-6.11;100.00
70930;BME280;58588;48.102;19.682;2023-02-11T00:17:42;101412.81;;;-6.18;100.00
70930;BME280;58588;48.102;19.682;2023-02-11T00:20:44;101399.00;;;-6.27;100.00
70930;BME280;58588;48.102;19.682;2023-02-11T00:23:48;101397.84;;;-6.13;100.00
70930;BME280;58588;48.102;19.682;2023-02-11T00:26:50;101396.56;;;-6.36;100.00
70930;BME280;58588;48.102;19.682;2023-02-11T00:29:52;101392.19;;;-6.35;100.00
70930;BME280;58588;48.102;19.682;2023-02-11T00:32:54;101388.47;;;-6.25;100.00
70930;BME280;58588;48.102;19.682;2023-02-11T00:35:57;101386.69;;;-6.23;100.00
70930;BME280;58588;48.102;19.682;2023-02-11T00:39:01;101385.28;;;-6.39;100.00
70930;BME280;58588;48.102;19.682;2023-02-11T00:42:03;101392.41;;;-6.46;100.00
70930;BME280;58588;48.102;19.682;2023-02-11T00:45:05;101380.94;;;-6.40;100.00
70930;BME280;58588;48.102;19.682;2023-02-11T00:48:09;101378.84;;;-6.25;100.00
70930;BME280;58588;48.102;19.682;2023-02-11T00:51:11;101376.34;;;-6.29;100.00
70930;BME280;58588;48.102;19.682;2023-02-11T00:54:15;101370.22;;;-6.31;100.00
70930;BME280;58588;48.102;19.682;2023-02-11T00:57:17;101382.66;;;-6.39;100.00
70930;BME280;58588;48.102;19.682;2023-02-11T01:00:19;101389.72;;;-6.43;100.00
70930;BME280;58588;48.102;19.682;2023-02-11T01:03:21;101370.84;;;-6.60;100.00
70930;BME280;58588;48.102;19.682;2023-02-11T01:06:23;101373.59;;;-6.66;100.00
70930;BME280;58588;48.102;19.682;2023-02-11T01:09:27;101373.63;;;-6.68;100.00
70930;BME280;58588;48.102;19.682;2023-02-11T01:12:29;101369.03;;;-6.57;100.00
70930;BME280;58588;48.102;19.682;2023-02-11T01:15:32;101367.25;;;-6.56;100.00
70930;BME280;58588;48.102;19.682;2023-02-11T01:18:34;101369.84;;;-6.55;100.00
70930;BME280;58588;48.102;19.682;2023-02-11T01:21:37;101363.81;;;-6.60;100.00
70930;BME280;58588;48.102;19.682;2023-02-11T01:24:40;101365.72;;;-6.66;100.00
70930;BME280;58588;48.102;19.682;2023-02-11T01:27:42;101359.72;;;-6.71;100.00
70930;BME280;58588;48.102;19.682;2023-02-11T01:30:45;101361.38;;;-6.67;100.00
70930;BME280;58588;48.102;19.682;2023-02-11T01:33:47;101360.59;;;-6.72;100.00
70930;BME280;58588;48.102;19.682;2023-02-11T01:36:49;101359.66;;;-6.68;100.00
70930;BME280;58588;48.102;19.682;2023-02-11T01:39:52;101358.09;;;-6.79;100.00
70930;BME280;58588;48.102;19.682;2023-02-11T01:42:54;101353.78;;;-6.81;100.00
70930;BME280;58588;48.102;19.682;2023-02-11T01:46:13;101353.13;;;-6.92;100.00
70930;BME280;58588;48.102;19.682;2023-02-11T01:49:21;101352.47;;;-7.04;100.00
70930;BME280;58588;48.102;19.682;2023-02-11T01:52:26;101345.66;;;-7.12;100.00
70930;BME280;58588;48.102;19.682;2023-02-11T01:55:31;101343.78;;;-7.06;100.00
70930;BME280;58588;48.102;19.682;2023-02-11T01:58:51;101335.03;;;-7.05;100.00
70930;BME280;58588;48.102;19.682;2023-02-11T02:01:58;101340.41;;;-7.14;100.00
70930;BME280;58588;48.102;19.682;2023-02-11T02:05:08;101338.91;;;-7.25;100.00
70930;BME280;58588;48.102;19.682;2023-02-11T02:08:18;101344.16;;;-7.27;100.00
70930;BME280;58588;48.102;19.682;2023-02-11T02:11:23;101340.72;;;-7.29;100.00
70930;BME280;58588;48.102;19.682;2023-02-11T02:14:25;101338.81;;;-7.19;100.00
70930;BME280;58588;48.102;19.682;2023-02-11T02:17:36;101332.69;;;-7.20;100.00
70930;BME280;58588;48.102;19.682;2023-02-11T02:25:03;101329.19;;;-7.20;100.00
70930;BME280;58588;48.102;19.682;2023-02-11T02:28:33;101333.66;;;-7.24;100.00
70930;BME280;58588;48.102;19.682;2023-02-11T02:32:07;101335.53;;;-7.32;100.00
70930;BME280;58588;48.102;19.682;2023-02-11T02:35:18;101324.13;;;-7.30;100.00
70930;BME280;58588;48.102;19.682;2023-02-11T02:38:27;101321.56;;;-7.31;100.00
70930;BME280;58588;48.102;19.682;2023-02-11T02:41:32;101329.53;;;-7.39;100.00
70930;BME280;58588;48.102;19.682;2023-02-11T02:44:36;101333.91;;;-7.39;100.00
70930;BME280;58588;48.102;19.682;2023-02-11T02:47:39;101331.44;;;-7.47;100.00
70930;BME280;58588;48.102;19.682;2023-02-11T02:50:42;101322.81;;;-7.53;100.00
70930;BME280;58588;48.102;19.682;2023-02-11T02:53:55;101323.63;;;-7.50;100.00
70930;BME280;58588;48.102;19.682;2023-02-11T02:57:06;101314.19;;;-7.59;100.00
70930;BME280;58588;48.102;19.682;2023-02-11T03:00:19;101308.13;;;-7.61;100.00
70930;BME280;58588;48.102;19.682;2023-02-11T03:03:33;101303.59;;;-7.52;100.00
70930;BME280;58588;48.102;19.682;2023-02-11T03:06:45;101298.16;;;-7.42;100.00
70930;BME280;58588;48.102;19.682;2023-02-11T03:09:53;101298.03;;;-7.34;100.00
70930;BME280;58588;48.102;19.682;2023-02-11T03:12:58;101292.81;;;-7.36;100.00
70930;BME280;58588;48.102;19.682;2023-02-11T03:16:07;101291.03;;;-7.34;100.00
70930;BME280;58588;48.102;19.682;2023-02-11T03:19:14;101276.41;;;-7.45;100.00
70930;BME280;58588;48.102;19.682;2023-02-11T03:22:21;101274.53;;;-7.37;100.00
70930;BME280;58588;48.102;19.682;2023-02-11T03:25:29;101271.78;;;-7.31;100.00
70930;BME280;58588;48.102;19.682;2023-02-11T03:28:35;101261.47;;;-7.40;100.00
70930;BME280;58588;48.102;19.682;2023-02-11T03:31:46;101263.16;;;-7.36;100.00
70930;BME280;58588;48.102;19.682;2023-02-11T03:34:55;101243.28;;;-7.48;100.00
70930;BME280;58588;48.102;19.682;2023-02-11T03:38:01;101234.72;;;-7.58;100.00
70930;BME280;58588;48.102;19.682;2023-02-11T03:41:08;101235.47;;;-7.51;100.00
70930;BME280;58588;48.102;19.682;2023-02-11T03:44:12;101227.38;;;-7.37;100.00
70930;BME280;58588;48.102;19.682;2023-02-11T03:47:19;101225.38;;;-7.26;100.00
70930;BME280;58588;48.102;19.682;2023-02-11T03:50:25;101233.34;;;-7.31;100.00
70930;BME280;58588;48.102;19.682;2023-02-11T03:53:27;101224.97;;;-7.48;100.00
70930;BME280;58588;48.102;19.682;2023-02-11T03:56:37;101226.66;;;-7.45;100.00
70930;BME280;58588;48.102;19.682;2023-02-11T03:59:54;101222.31;;;-7.46;100.00
70930;BME280;58588;48.102;19.682;2023-02-11T04:02:56;101230.25;;;-7.49;100.00
70930;BME280;58588;48.102;19.682;2023-02-11T04:05:59;101218.44;;;-7.72;100.00
70930;BME280;58588;48.102;19.682;2023-02-11T04:09:02;101227.19;;;-7.73;100.00
70930;BME280;58588;48.102;19.682;2023-02-11T04:12:04;101230.53;;;-7.68;100.00
70930;BME280;58588;48.102;19.682;2023-02-11T04:15:07;101219.09;;;-7.61;100.00
70930;BME280;58588;48.102;19.682;2023-02-11T04:18:10;101220.75;;;-7.57;100.00
70930;BME280;58588;48.102;19.682;2023-02-11T04:21:14;101215.00;;;-7.75;100.00
70930;BME280;58588;48.102;19.682;2023-02-11T04:24:16;101217.59;;;-7.75;100.00
70930;BME280;58588;48.102;19.682;2023-02-11T04:27:18;101219.56;;;-7.85;100.00
70930;BME280;58588;48.102;19.682;2023-02-11T04:30:20;101212.50;;;-7.82;100.00
70930;BME280;58588;48.102;19.682;2023-02-11T04:33:23;101207.06;;;-7.71;100.00
70930;BME280;58588;48.102;19.682;2023-02-11T04:36:26;101214.13;;;-7.76;100.00
70930;BME280;58588;48.102;19.682;2023-02-11T04:39:28;101207.50;;;-7.95;100.00
70930;BME280;58588;48.102;19.682;2023-02-11T04:42:30;101204.94;;;-7.97;100.00
70930;BME280;58588;48.102;19.682;2023-02-11T04:45:33;101207.50;;;-7.95;100.00
70930;BME280;58588;48.102;19.682;2023-02-11T04:48:35;101208.34;;;-7.93;100.00
70930;BME280;58588;48.102;19.682;2023-02-11T04:51:38;101209.41;;;-8.03;100.00
70930;BME280;58588;48.102;19.682;2023-02-11T04:54:40;101204.25;;;-8.08;100.00
70930;BME280;58588;48.102;19.682;2023-02-11T04:57:42;101219.00;;;-8.05;100.00
70930;BME280;58588;48.102;19.682;2023-02-11T05:00:44;101218.13;;;-8.04;100.00
70930;BME280;58588;48.102;19.682;2023-02-11T05:03:46;101215.47;;;-8.01;100.00
70930;BME280;58588;48.102;19.682;2023-02-11T05:06:50;101206.00;;;-8.09;100.00
70930;BME280;58588;48.102;19.682;2023-02-11T05:09:52;101205.00;;;-8.01;100.00
70930;BME280;58588;48.102;19.682;2023-02-11T05:12:54;101198.94;;;-8.05;100.00
70930;BME280;58588;48.102;19.682;2023-02-11T05:15:56;101202.66;;;-8.18;100.00
70930;BME280;58588;48.102;19.682;2023-02-11T05:18:58;101204.41;;;-8.19;100.00
70930;BME280;58588;48.102;19.682;2023-02-11T05:22:02;101199.22;;;-8.20;100.00
70930;BME280;58588;48.102;19.682;2023-02-11T05:25:04;101198.28;;;-8.18;100.00
70930;BME280;58588;48.102;19.682;2023-02-11T05:28:06;101192.16;;;-8.17;100.00
70930;BME280;58588;48.102;19.682;2023-02-11T05:31:08;101194.69;;;-8.11;100.00
70930;BME280;58588;48.102;19.682;2023-02-11T05:34:11;101188.50;;;-8.06;100.00
70930;BME280;58588;48.102;19.682;2023-02-11T05:37:15;101188.56;;;-8.10;100.00
70930;BME280;58588;48.102;19.682;2023-02-11T05:40:18;101196.50;;;-8.16;100.00
70930;BME280;58588;48.102;19.682;2023-02-11T05:43:20;101193.84;;;-8.13;100.00
70930;BME280;58588;48.102;19.682;2023-02-11T05:46:22;101192.16;;;-8.15;100.00
70930;BME280;58588;48.102;19.682;2023-02-11T05:49:24;101186.78;;;-8.07;100.00
70930;BME280;58588;48.102;19.682;2023-02-11T05:52:28;101184.06;;;-8.01;100.00
70930;BME280;58588;48.102;19.682;2023-02-11T05:55:30;101172.72;;;-8.00;100.00
70930;BME280;58588;48.102;19.682;2023-02-11T05:58:32;101174.06;;;-7.78;100.00
70930;BME280;58588;48.102;19.682;2023-02-11T06:01:34;101164.28;;;-7.70;100.00
70930;BME280;58588;48.102;19.682;2023-02-11T06:04:36;101162.47;;;-7.66;100.00
70930;BME280;58588;48.102;19.682;2023-02-11T06:07:40;101159.41;;;-7.43;100.00
70930;BME280;58588;48.102;19.682;2023-02-11T06:10:47;101153.91;;;-7.31;100.00
70930;BME280;58588;48.102;19.682;2023-02-11T06:13:49;101144.31;;;-7.32;100.00
70930;BME280;58588;48.102;19.682;2023-02-11T06:16:52;101149.88;;;-7.06;100.00
70930;BME280;58588;48.102;19.682;2023-02-11T06:19:54;101151.34;;;-6.94;100.00
70930;BME280;58588;48.102;19.682;2023-02-11T06:22:57;101156.22;;;-6.77;100.00
70930;BME280;58588;48.102;19.682;2023-02-11T06:26:01;101160.06;;;-6.56;100.00
70930;BME280;58588;48.102;19.682;2023-02-11T06:29:03;101162.94;;;-6.67;100.00
70930;BME280;58588;48.102;19.682;2023-02-11T06:32:05;101163.25;;;-6.43;100.00
70930;BME280;58588;48.102;19.682;2023-02-11T06:35:07;101160.38;;;-6.33;100.00
70930;BME280;58588;48.102;19.682;2023-02-11T06:38:11;101151.66;;;-6.33;100.00
70930;BME280;58588;48.102;19.682;2023-02-11T06:41:15;101161.03;;;-6.23;100.00
70930;BME280;58588;48.102;19.682;2023-02-11T06:44:19;101147.13;;;-5.94;100.00
70930;BME280;58588;48.102;19.682;2023-02-11T06:47:21;101146.75;;;-5.82;100.00
70930;BME280;58588;48.102;19.682;2023-02-11T06:50:33;101134.69;;;-5.56;100.00
70930;BME280;58588;48.102;19.682;2023-02-11T06:53:38;101145.78;;;-5.47;100.00
70930;BME280;58588;48.102;19.682;2023-02-11T06:56:41;101140.03;;;-5.59;100.00
70930;BME280;58588;48.102;19.682;2023-02-11T06:59:43;101145.88;;;-5.50;100.00
70930;BME280;58588;48.102;19.682;2023-02-11T07:02:45;101128.69;;;-5.30;100.00
70930;BME280;58588;48.102;19.682;2023-02-11T07:05:47;101127.38;;;-5.16;100.00
70930;BME280;58588;48.102;19.682;2023-02-11T07:08:50;101126.84;;;-4.99;100.00
70930;BME280;58588;48.102;19.682;2023-02-11T07:11:52;101129.28;;;-4.65;100.00
70930;BME280;58588;48.102;19.682;2023-02-11T07:14:55;101119.88;;;-4.72;100.00
70930;BME280;58588;48.102;19.682;2023-02-11T07:17:57;101117.34;;;-4.48;100.00
70930;BME280;58588;48.102;19.682;2023-02-11T07:20:59;101111.84;;;-4.16;100.00
70930;BME280;58588;48.102;19.682;2023-02-11T07:24:07;101119.19;;;-3.99;100.00
70930;BME280;58588;48.102;19.682;2023-02-11T07:27:09;101112.47;;;-3.83;100.00
70930;BME280;58588;48.102;19.682;2023-02-11T07:30:12;101121.28;;;-3.60;100.00
70930;BME280;58588;48.102;19.682;2023-02-11T07:33:15;101111.91;;;-3.44;100.00
70930;BME280;58588;48.102;19.682;2023-02-11T07:36:17;101114.84;;;-3.28;100.00
70930;BME280;58588;48.102;19.682;2023-02-11T07:39:20;101107.63;;;-3.46;100.00
70930;BME280;58588;48.102;19.682;2023-02-11T07:42:26;101112.59;;;-3.15;100.00
70930;BME280;58588;48.102;19.682;2023-02-11T07:45:28;101112.72;;;-2.97;100.00
70930;BME280;58588;48.102;19.682;2023-02-11T07:48:30;101114.38;;;-3.16;100.00
70930;BME280;58588;48.102;19.682;2023-02-11T07:51:32;101115.63;;;-3.26;100.00
70930;BME280;58588;48.102;19.682;2023-02-11T07:54:36;101111.66;;;-3.14;100.00
70930;BME280;58588;48.102;19.682;2023-02-11T07:57:38;101109.78;;;-2.89;100.00
70930;BME280;58588;48.102;19.682;2023-02-11T08:00:40;101103.78;;;-2.71;100.00
70930;BME280;58588;48.102;19.682;2023-02-11T08:03:45;101096.59;;;-2.89;100.00
70930;BME280;58588;48.102;19.682;2023-02-11T08:06:47;101104.66;;;-2.92;100.00
70930;BME280;58588;48.102;19.682;2023-02-11T08:09:53;101109.72;;;-2.65;100.00
70930;BME280;58588;48.102;19.682;2023-02-11T08:12:55;101098.66;;;-2.31;100.00
70930;BME280;58588;48.102;19.682;2023-02-11T08:15:58;101103.25;;;-2.16;100.00
70930;BME280;58588;48.102;19.682;2023-02-11T08:19:01;101106.91;;;-2.19;100.00
70930;BME280;58588;48.102;19.682;2023-02-11T08:22:04;101107.31;;;-2.07;100.00
70930;BME280;58588;48.102;19.682;2023-02-11T08:25:08;101103.69;;;-1.84;100.00
70930;BME280;58588;48.102;19.682;2023-02-11T08:28:10;101099.63;;;-1.73;100.00
70930;BME280;58588;48.102;19.682;2023-02-11T08:31:16;101095.22;;;-1.93;100.00
70930;BME280;58588;48.102;19.682;2023-02-11T08:34:18;101089.28;;;-2.18;100.00
70930;BME280;58588;48.102;19.682;2023-02-11T08:37:21;101087.75;;;-2.24;100.00
70930;BME280;58588;48.102;19.682;2023-02-11T08:40:24;101081.34;;;-2.18;100.00
70930;BME280;58588;48.102;19.682;2023-02-11T08:43:26;101084.06;;;-1.99;100.00
70930;BME280;58588;48.102;19.682;2023-02-11T08:46:29;101072.28;;;-1.72;100.00
70930;BME280;58588;48.102;19.682;2023-02-11T08:49:31;101076.38;;;-1.46;100.00
70930;BME280;58588;48.102;19.682;2023-02-11T08:52:34;101081.94;;;-1.33;100.00
70930;BME280;58588;48.102;19.682;2023-02-11T08:55:38;101069.53;;;-1.12;100.00
70930;BME280;58588;48.102;19.682;2023-02-11T08:58:40;101069.00;;;-1.01;100.00
70930;BME280;58588;48.102;19.682;2023-02-11T09:01:42;101067.00;;;-0.43;100.00
70930;BME280;58588;48.102;19.682;2023-02-11T09:04:46;101073.63;;;-0.34;100.00
70930;BME280;58588;48.102;19.682;2023-02-11T09:07:48;101064.03;;;-0.02;100.00
70930;BME280;58588;48.102;19.682;2023-02-11T09:10:55;101054.91;;;-0.14;100.00
70930;BME280;58588;48.102;19.682;2023-02-11T09:13:57;101072.78;;;0.00;100.00
70930;BME280;58588;48.102;19.682;2023-02-11T09:16:59;101063.28;;;0.12;100.00
70930;BME280;58588;48.102;19.682;2023-02-11T09:20:01;101053.59;;;0.28;100.00
70930;BME280;58588;48.102;19.682;2023-02-11T09:24:08;101064.59;;;0.53;99.41
70930;BME280;58588;48.102;19.682;2023-02-11T09:27:10;101059.06;;;0.74;96.08
70930;BME280;58588;48.102;19.682;2023-02-11T09:30:12;101061.72;;;0.90;99.31
70930;BME280;58588;48.102;19.682;2023-02-11T09:33:14;101052.56;;;0.95;96.05
70930;BME280;58588;48.102;19.682;2023-02-11T09:36:18;101050.59;;;0.99;94.50
70930;BME280;58588;48.102;19.682;2023-02-11T09:39:22;101070.63;;;0.73;94.05
70930;BME280;58588;48.102;19.682;2023-02-11T09:42:44;101063.69;;;0.70;95.83
70930;BME280;58588;48.102;19.682;2023-02-11T09:45:48;101056.16;;;1.10;96.57
70930;BME280;58588;48.102;19.682;2023-02-11T09:48:52;101050.31;;;0.72;93.71
70930;BME280;58588;48.102;19.682;2023-02-11T09:51:58;101045.88;;;0.57;95.27
70930;BME280;58588;48.102;19.682;2023-02-11T09:55:14;101041.88;;;0.81;97.90
70930;BME280;58588;48.102;19.682;2023-02-11T09:58:21;101037.59;;;0.78;96.17
70930;BME280;58588;48.102;19.682;2023-02-11T10:01:29;101035.97;;;1.38;97.63
70930;BME280;58588;48.102;19.682;2023-02-11T10:04:46;101019.75;;;1.58;95.70
70930;BME280;58588;48.102;19.682;2023-02-11T10:07:55;101010.06;;;1.57;91.76
70930;BME280;58588;48.102;19.682;2023-02-11T10:11:08;101012.25;;;1.65;90.74
70930;BME280;58588;48.102;19.682;2023-02-11T10:14:24;101007.69;;;1.37;86.76
70930;BME280;58588;48.102;19.682;2023-02-11T10:17:38;101001.41;;;1.68;88.41
70930;BME280;58588;48.102;19.682;2023-02-11T10:20:51;101001.38;;;1.83;86.72
70930;BME280;58588;48.102;19.682;2023-02-11T10:24:02;100993.25;;;1.56;85.98
70930;BME280;58588;48.102;19.682;2023-02-11T10:27:14;100998.44;;;1.88;86.21
70930;BME280;58588;48.102;19.682;2023-02-11T10:30:24;100987.25;;;2.11;84.32
70930;BME280;58588;48.102;19.682;2023-02-11T10:33:30;100971.09;;;2.29;81.71
70930;BME280;58588;48.102;19.682;2023-02-11T10:36:35;100971.97;;;2.71;78.32
70930;BME280;58588;48.102;19.682;2023-02-11T10:39:39;100969.09;;;3.01;79.52
70930;BME280;58588;48.102;19.682;2023-02-11T10:42:45;100970.25;;;2.97;75.19
70930;BME280;58588;48.102;19.682;2023-02-11T10:45:50;100972.22;;;3.07;75.88
70930;BME280;58588;48.102;19.682;2023-02-11T10:48:53;100951.34;;;3.79;76.32
70930;BME280;58588;48.102;19.682;2023-02-11T10:52:11;100952.38;;;4.27;73.18
70930;BME280;58588;48.102;19.682;2023-02-11T10:55:15;100940.78;;;3.90;71.42
70930;BME280;58588;48.102;19.682;2023-02-11T10:58:24;100923.91;;;4.02;71.86
70930;BME280;58588;48.102;19.682;2023-02-11T11:01:39;100922.38;;;4.11;71.24
70930;BME280;58588;48.102;19.682;2023-02-11T11:04:42;100910.28;;;4.31;69.13
70930;BME280;58588;48.102;19.682;2023-02-11T11:07:52;100898.66;;;4.32;69.87
70930;BME280;58588;48.102;19.682;2023-02-11T11:11:01;100892.03;;;4.25;69.25
70930;BME280;58588;48.102;19.682;2023-02-11T11:14:17;100910.69;;;4.38;67.33
70930;BME280;58588;48.102;19.682;2023-02-11T11:17:20;100903.59;;;4.13;66.65
70930;BME280;58588;48.102;19.682;2023-02-11T11:20:24;100906.88;;;4.29;67.51
70930;BME280;58588;48.102;19.682;2023-02-11T11:23:29;100895.56;;;4.25;68.03
70930;BME280;58588;48.102;19.682;2023-02-11T11:26:39;100901.53;;;4.29;66.62
70930;BME280;58588;48.102;19.682;2023-02-11T11:29:46;100895.91;;;4.81;67.44
70930;BME280;58588;48.102;19.682;2023-02-11T11:32:49;100883.41;;;4.58;66.34
70930;BME280;58588;48.102;19.682;2023-02-11T11:36:00;100878.38;;;4.53;67.43
70930;BME280;58588;48.102;19.682;2023-02-11T11:39:16;100883.50;;;5.16;66.19
70930;BME280;58588;48.102;19.682;2023-02-11T11:42:25;100890.78;;;4.78;65.02
70930;BME280;58588;48.102;19.682;2023-02-11T11:45:30;100878.22;;;5.03;64.79
70930;BME280;58588;48.102;19.682;2023-02-11T11:48:35;100878.75;;;5.08;64.03
70930;BME280;58588;48.102;19.682;2023-02-11T11:51:41;100873.22;;;5.33;63.09
70930;BME280;58588;48.102;19.682;2023-02-11T11:54:51;100856.25;;;5.68;64.64
70930;BME280;58588;48.102;19.682;2023-02-11T11:57:56;100857.22;;;5.67;63.01
70930;BME280;58588;48.102;19.682;2023-02-11T12:01:09;100845.19;;;5.84;63.26
70930;BME280;58588;48.102;19.682;2023-02-11T12:07:54;100830.47;;;5.56;62.56
70930;BME280;58588;48.102;19.682;2023-02-11T12:11:10;100832.31;;;5.89;62.40
70930;BME280;58588;48.102;19.682;2023-02-11T12:14:23;100842.09;;;5.10;61.90
70930;BME280;58588;48.102;19.682;2023-02-11T12:17:42;100841.06;;;4.41;63.38
70930;BME280;58588;48.102;19.682;2023-02-11T12:21:03;100823.13;;;5.13;64.01
70930;BME280;58588;48.102;19.682;2023-02-11T12:24:29;100829.59;;;5.22;62.41
70930;BME280;58588;48.102;19.682;2023-02-11T12:27:46;100825.69;;;5.26;61.46
70930;BME280;58588;48.102;19.682;2023-02-11T12:31:03;100824.03;;;5.36;62.44
70930;BME280;58588;48.102;19.682;2023-02-11T12:37:47;100804.38;;;5.02;64.35
70930;BME280;58588;48.102;19.682;2023-02-11T12:41:18;100785.00;;;4.76;63.64
70930;BME280;58588;48.102;19.682;2023-02-11T12:44:53;100778.94;;;4.85;63.97
70930;BME280;58588;48.102;19.682;2023-02-11T12:48:10;100779.66;;;4.76;62.99
70930;BME280;58588;48.102;19.682;2023-02-11T12:51:26;100774.84;;;4.81;64.00
70930;BME280;58588;48.102;19.682;2023-02-11T12:54:37;100759.22;;;5.10;63.21
70930;BME280;58588;48.102;19.682;2023-02-11T12:57:40;100756.94;;;5.28;62.57
70930;BME280;58588;48.102;19.682;2023-02-11T13:00:49;100761.81;;;5.34;60.94
70930;BME280;58588;48.102;19.682;2023-02-11T13:03:55;100759.59;;;5.50;61.42
70930;BME280;58588;48.102;19.682;2023-02-11T13:07:03;100752.16;;;5.20;61.34
70930;BME280;58588;48.102;19.682;2023-02-11T13:10:23;100743.44;;;5.29;60.90
70930;BME280;58588;48.102;19.682;2023-02-11T13:13:28;100731.28;;;5.25;61.37
70930;BME280;58588;48.102;19.682;2023-02-11T13:16:35;100739.56;;;5.22;61.08
70930;BME280;58588;48.102;19.682;2023-02-11T13:19:43;100732.25;;;5.13;61.76
70930;BME280;58588;48.102;19.682;2023-02-11T13:22:55;100721.66;;;5.68;61.71
70930;BME280;58588;48.102;19.682;2023-02-11T13:26:06;100714.44;;;5.79;59.57
70930;BME280;58588;48.102;19.682;2023-02-11T13:29:25;100724.03;;;6.04;59.80
70930;BME280;58588;48.102;19.682;2023-02-11T13:33:17;100733.41;;;5.87;58.80
70930;BME280;58588;48.102;19.682;2023-02-11T13:36:27;100737.00;;;5.43;60.59
70930;BME280;58588;48.102;19.682;2023-02-11T13:39:33;100736.38;;;5.40;60.74
70930;BME280;58588;48.102;19.682;2023-02-11T13:42:48;100737.00;;;5.43;61.98
70930;BME280;58588;48.102;19.682;2023-02-11T13:45:56;100731.63;;;4.87;63.55
70930;BME280;58588;48.102;19.682;2023-02-11T13:48:59;100741.09;;;4.80;63.88
70930;BME280;58588;48.102;19.682;2023-02-11T13:52:04;100734.63;;;4.82;64.93
70930;BME280;58588;48.102;19.682;2023-02-11T13:55:14;100733.13;;;4.67;64.49
70930;BME280;58588;48.102;19.682;2023-02-11T13:58:35;100740.84;;;4.48;65.48
70930;BME280;58588;48.102;19.682;2023-02-11T14:01:43;100735.72;;;4.69;66.19
70930;BME280;58588;48.102;19.682;2023-02-11T14:05:21;100735.47;;;4.72;66.62
70930;BME280;58588;48.102;19.682;2023-02-11T14:09:01;100740.38;;;4.54;66.63
70930;BME280;58588;48.102;19.682;2023-02-11T14:12:39;100743.97;;;4.42;66.89
70930;BME280;58588;48.102;19.682;2023-02-11T14:15:45;100760.19;;;4.03;67.92
70930;BME280;58588;48.102;19.682;2023-02-11T14:18:58;100762.97;;;4.02;68.31
70930;BME280;58588;48.102;19.682;2023-02-11T14:22:01;100750.25;;;4.06;70.13
70930;BME280;58588;48.102;19.682;2023-02-11T14:25:15;100730.06;;;4.14;69.39
70930;BME280;58588;48.102;19.682;2023-02-11T14:28:23;100722.25;;;4.11;69.15
70930;BME280;58588;48.102;19.682;2023-02-11T14:31:36;100731.25;;;4.10;69.45
70930;BME280;58588;48.102;19.682;2023-02-11T14:34:49;100713.06;;;4.15;70.10
70930;BME280;58588;48.102;19.682;2023-02-11T14:37:59;100728.56;;;4.10;69.82
70930;BME280;58588;48.102;19.682;2023-02-11T14:41:06;100719.66;;;3.98;69.13
70930;BME280;58588;48.102;19.682;2023-02-11T14:44:15;100722.84;;;4.03;69.86
70930;BME280;58588;48.102;19.682;2023-02-11T14:47:21;100714.19;;;4.00;69.89
70930;BME280;58588;48.102;19.682;2023-02-11T14:50:27;100713.91;;;4.16;69.91
70930;BME280;58588;48.102;19.682;2023-02-11T14:53:33;100707.41;;;3.96;69.75
70930;BME280;58588;48.102;19.682;2023-02-11T14:56:35;100706.03;;;4.14;70.25
70930;BME280;58588;48.102;19.682;2023-02-11T14:59:39;100711.47;;;4.13;69.80
70930;BME280;58588;48.102;19.682;2023-02-11T15:02:54;100699.16;;;3.99;69.38
70930;BME280;58588;48.102;19.682;2023-02-11T15:05:58;100712.22;;;3.91;70.11
70930;BME280;58588;48.102;19.682;2023-02-11T15:09:04;100684.13;;;3.98;70.27
70930;BME280;58588;48.102;19.682;2023-02-11T15:12:15;100676.69;;;3.90;70.62
70930;BME280;58588;48.102;19.682;2023-02-11T15:15:21;100673.00;;;3.80;70.89
70930;BME280;58588;48.102;19.682;2023-02-11T15:18:28;100657.66;;;3.71;71.34
70930;BME280;58588;48.102;19.682;2023-02-11T15:21:33;100647.56;;;3.63;72.12
70930;BME280;58588;48.102;19.682;2023-02-11T15:24:36;100632.31;;;3.65;71.91
70930;BME280;58588;48.102;19.682;2023-02-11T15:27:41;100629.59;;;3.54;72.84
70930;BME280;58588;48.102;19.682;2023-02-11T15:30:45;100619.84;;;3.66;73.56
70930;BME280;58588;48.102;19.682;2023-02-11T15:33:47;100624.03;;;3.57;73.59
70930;BME280;58588;48.102;19.682;2023-02-11T15:36:49;100623.31;;;3.55;73.55
70930;BME280;58588;48.102;19.682;2023-02-11T15:39:52;100627.59;;;3.45;74.54
70930;BME280;58588;48.102;19.682;2023-02-11T15:42:56;100643.38;;;3.48;73.64
70930;BME280;58588;48.102;19.682;2023-02-11T15:46:00;100639.28;;;3.31;75.04
70930;BME280;58588;48.102;19.682;2023-02-11T15:49:03;100643.13;;;3.27;76.08
70930;BME280;58588;48.102;19.682;2023-02-11T15:52:07;100636.41;;;3.21;76.03
70930;BME280;58588;48.102;19.682;2023-02-11T15:55:13;100634.00;;;3.18;76.35
70930;BME280;58588;48.102;19.682;2023-02-11T15:58:16;100638.47;;;3.18;76.57
70930;BME280;58588;48.102;19.682;2023-02-11T16:01:27;100618.66;;;3.09;76.71
70930;BME280;58588;48.102;19.682;2023-02-11T16:04:30;100626.44;;;3.12;76.79
70930;BME280;58588;48.102;19.682;2023-02-11T16:07:43;100625.34;;;3.15;77.18
70930;BME280;58588;48.102;19.682;2023-02-11T16:10:54;100616.50;;;3.14;76.83
70930;BME280;58588;48.102;19.682;2023-02-11T16:13:59;100597.97;;;3.13;77.09